createdAt,value
2022-12-25T00:02:13.400Z,4.94
2022-12-25T00:04:41.341Z,4.98
2022-12-25T00:07:08.723Z,5.05
2022-12-25T00:09:36.598Z,5.13
2022-12-25T00:12:04.404Z,5.15
2022-12-25T00:14:31.820Z,5.17
2022-12-25T00:16:59.252Z,5.25
2022-12-25T00:19:27.484Z,5.26
2022-12-25T00:21:54.987Z,5.28
2022-12-25T00:24:22.411Z,5.35
2022-12-25T00:26:50.178Z,5.38
2022-12-25T00:29:17.598Z,5.41
2022-12-25T00:31:45.142Z,5.39
2022-12-25T00:34:12.936Z,5.37
2022-12-25T00:36:42.088Z,5.37
2022-12-25T00:39:09.786Z,5.35
2022-12-25T00:41:56.123Z,5.37
2022-12-25T00:44:23.634Z,5.36
2022-12-25T00:46:51.424Z,5.36
2022-12-25T00:49:18.965Z,5.36
2022-12-25T00:51:46.419Z,5.38
2022-12-25T00:54:14.193Z,5.40
2022-12-25T00:56:41.617Z,5.40
2022-12-25T00:59:09.346Z,5.41
2022-12-25T01:01:38.144Z,5.42
2022-12-25T01:04:06.198Z,5.45
2022-12-25T01:06:33.694Z,5.45
2022-12-25T01:09:19.888Z,5.48
2022-12-25T01:11:47.371Z,5.50
2022-12-25T01:14:15.269Z,5.51
2022-12-25T01:16:42.864Z,5.56
2022-12-25T01:19:11.314Z,5.54
2022-12-25T01:21:39.342Z,5.52
2022-12-25T01:24:07.102Z,5.60
2022-12-25T01:26:34.517Z,5.60
2022-12-25T01:29:02.695Z,5.61
2022-12-25T01:31:30.192Z,5.62
2022-12-25T01:33:57.747Z,5.61
2022-12-25T01:36:26.586Z,5.64
2022-12-25T01:38:54.607Z,5.65
2022-12-25T01:41:23.985Z,5.68
2022-12-25T01:44:15.992Z,5.70
2022-12-25T01:46:43.931Z,5.74
2022-12-25T01:49:16.687Z,5.75
2022-12-25T01:51:54.233Z,5.75
2022-12-25T01:54:27.001Z,5.78
2022-12-25T01:56:57.977Z,5.79
2022-12-25T01:59:27.426Z,5.82
2022-12-25T02:01:57.017Z,5.84
2022-12-25T02:04:40.163Z,5.85
2022-12-25T02:07:13.063Z,5.86
2022-12-25T02:09:41.885Z,5.88
2022-12-25T02:12:14.899Z,5.93
2022-12-25T02:14:42.888Z,5.96
2022-12-25T02:17:16.270Z,5.96
2022-12-25T02:20:06.081Z,6.00
2022-12-25T02:22:50.818Z,6.02
2022-12-25T02:25:45.322Z,5.97
2022-12-25T02:28:15.368Z,6.06
2022-12-25T02:30:50.032Z,6.08
2022-12-25T02:33:44.830Z,6.09
2022-12-25T02:36:16.594Z,6.09
2022-12-25T02:39:08.290Z,6.09
2022-12-25T02:41:39.614Z,6.12
2022-12-25T02:44:31.366Z,6.12
2022-12-25T02:47:18.121Z,6.14
2022-12-25T02:50:05.369Z,6.17
2022-12-25T02:52:51.905Z,6.19
2022-12-25T02:55:43.127Z,6.21
2022-12-25T02:58:33.733Z,6.19
2022-12-25T03:01:24.673Z,6.20
2022-12-25T03:04:14.233Z,6.19
2022-12-25T03:06:50.917Z,6.22
2022-12-25T03:09:43.249Z,6.20
2022-12-25T03:12:20.470Z,6.24
2022-12-25T03:15:07.595Z,6.23
2022-12-25T03:17:35.822Z,6.21
2022-12-25T03:20:23.710Z,6.22
2022-12-25T03:23:11.637Z,6.16
2022-12-25T03:25:58.063Z,6.21
2022-12-25T03:28:25.650Z,6.18
2022-12-25T03:31:12.967Z,6.18
2022-12-25T03:34:27.307Z,6.18
2022-12-25T03:37:35.442Z,6.16
2022-12-25T03:40:36.999Z,6.16
2022-12-25T03:43:34.085Z,6.19
2022-12-25T03:46:24.465Z,6.13
2022-12-25T03:49:18.435Z,6.17
2022-12-25T03:52:06.514Z,6.18
2022-12-25T03:54:55.923Z,6.12
2022-12-25T03:57:42.027Z,6.16
2022-12-25T04:00:28.977Z,6.13
2022-12-25T04:03:15.352Z,6.11
2022-12-25T04:06:01.633Z,6.11
2022-12-25T04:08:48.082Z,6.10
2022-12-25T04:11:34.541Z,6.06
2022-12-25T04:14:21.000Z,6.05
2022-12-25T04:17:06.630Z,6.02
2022-12-25T04:19:53.013Z,6.01
2022-12-25T04:22:38.990Z,6.04
2022-12-25T04:25:25.906Z,5.99
2022-12-25T04:28:11.990Z,5.98
2022-12-25T04:30:58.580Z,5.97
2022-12-25T04:34:04.302Z,5.97
2022-12-25T04:36:32.866Z,5.97
2022-12-25T04:39:00.413Z,5.95
2022-12-25T04:41:27.886Z,5.94
2022-12-25T04:43:55.642Z,5.87
2022-12-25T04:46:23.176Z,5.86
2022-12-25T04:48:50.907Z,5.85
2022-12-25T04:51:24.001Z,5.88
2022-12-25T04:53:52.739Z,5.84
2022-12-25T04:56:21.309Z,5.80
2022-12-25T04:58:49.174Z,5.75
2022-12-25T05:01:17.270Z,5.72
2022-12-25T05:03:45.118Z,5.68
2022-12-25T05:06:12.870Z,5.68
2022-12-25T05:08:40.292Z,5.67
2022-12-25T05:11:11.089Z,5.63
2022-12-25T05:13:39.025Z,5.55
2022-12-25T05:16:13.406Z,5.54
2022-12-25T05:18:41.579Z,5.50
2022-12-25T05:21:11.267Z,5.43
2022-12-25T05:23:39.266Z,5.30
2022-12-25T05:26:07.581Z,5.29
2022-12-25T05:28:35.880Z,5.32
2022-12-25T05:31:03.467Z,5.31
2022-12-25T05:33:31.355Z,5.30
2022-12-25T05:36:01.959Z,5.25
2022-12-25T05:38:29.845Z,5.22
2022-12-25T05:40:58.784Z,5.17
2022-12-25T05:43:26.877Z,5.11
2022-12-25T05:45:54.347Z,5.14
2022-12-25T05:48:22.488Z,5.17
2022-12-25T05:50:50.090Z,5.11
2022-12-25T05:53:17.478Z,5.13
2022-12-25T05:55:45.245Z,5.20
2022-12-25T05:58:13.679Z,5.08
2022-12-25T06:00:43.450Z,5.11
2022-12-25T06:03:11.201Z,5.11
2022-12-25T06:05:39.690Z,5.04
2022-12-25T06:08:07.152Z,4.94
2022-12-25T06:10:36.126Z,4.93
2022-12-25T06:13:03.984Z,4.92
2022-12-25T06:15:31.469Z,4.90
2022-12-25T06:18:02.486Z,4.93
2022-12-25T06:20:30.287Z,4.99
2022-12-25T06:22:57.990Z,4.96
2022-12-25T06:25:25.895Z,5.04
2022-12-25T06:27:53.371Z,5.15
2022-12-25T06:30:20.876Z,5.22
2022-12-25T06:32:48.672Z,5.31
2022-12-25T06:35:16.112Z,5.41
2022-12-25T06:37:43.536Z,5.49
2022-12-25T06:40:13.118Z,5.56
2022-12-25T06:42:40.556Z,5.60
2022-12-25T06:45:08.527Z,5.60
2022-12-25T06:47:37.681Z,5.64
2022-12-25T06:50:07.953Z,5.73
2022-12-25T06:52:35.700Z,5.82
2022-12-25T06:55:03.225Z,5.84
2022-12-25T06:57:30.787Z,5.84
2022-12-25T06:59:58.504Z,5.92
2022-12-25T07:02:26.289Z,5.98
2022-12-25T07:04:54.084Z,5.96
2022-12-25T07:07:23.594Z,5.92
2022-12-25T07:09:51.106Z,5.99
2022-12-25T07:12:21.644Z,6.04
2022-12-25T07:14:50.180Z,6.06
2022-12-25T07:17:19.729Z,6.13
2022-12-25T07:19:47.578Z,6.23
2022-12-25T07:22:16.243Z,6.30
2022-12-25T07:24:43.737Z,6.35
2022-12-25T07:27:11.248Z,6.33
2022-12-25T07:29:39.132Z,6.40
2022-12-25T07:32:07.322Z,6.47
2022-12-25T07:34:34.759Z,6.52
2022-12-25T07:37:02.720Z,6.54
2022-12-25T07:39:30.282Z,6.54
2022-12-25T07:41:57.720Z,6.66
2022-12-25T07:44:27.011Z,6.64
2022-12-25T07:46:54.490Z,6.61
2022-12-25T07:49:22.058Z,6.56
2022-12-25T07:51:49.721Z,6.61
2022-12-25T07:54:17.235Z,6.56
2022-12-25T07:56:44.758Z,6.55
2022-12-25T07:59:12.581Z,6.58
2022-12-25T08:01:40.293Z,6.69
2022-12-25T08:04:10.136Z,6.77
2022-12-25T08:06:38.016Z,6.86
2022-12-25T08:09:08.284Z,6.94
2022-12-25T08:11:37.231Z,7.02
2022-12-25T08:14:09.011Z,7.10
2022-12-25T08:16:39.850Z,7.16
2022-12-25T08:19:09.212Z,7.18
2022-12-25T08:21:37.737Z,7.25
2022-12-25T08:24:05.503Z,7.23
2022-12-25T08:26:33.027Z,7.28
2022-12-25T08:29:00.717Z,7.33
2022-12-25T08:31:29.851Z,7.39
2022-12-25T08:33:59.025Z,7.46
2022-12-25T08:36:27.203Z,7.51
2022-12-25T08:39:02.708Z,7.58
2022-12-25T08:41:32.379Z,7.65
2022-12-25T08:43:59.820Z,7.73
2022-12-25T08:46:27.276Z,7.81
2022-12-25T08:48:56.782Z,7.83
2022-12-25T08:51:26.216Z,7.95
2022-12-25T08:53:58.894Z,8.02
2022-12-25T08:56:27.068Z,8.10
2022-12-25T08:58:54.712Z,8.21
2022-12-25T09:01:22.323Z,8.31
2022-12-25T09:03:50.176Z,8.36
2022-12-25T09:06:17.647Z,8.44
2022-12-25T09:08:49.158Z,8.51
2022-12-25T09:11:19.753Z,8.58
2022-12-25T09:13:48.899Z,8.66
2022-12-25T09:16:20.992Z,8.74
2022-12-25T09:18:49.173Z,8.79
2022-12-25T09:21:17.606Z,8.86
2022-12-25T09:23:45.088Z,8.93
2022-12-25T09:26:15.105Z,8.99
2022-12-25T09:28:48.759Z,9.02
2022-12-25T09:31:18.753Z,9.08
2022-12-25T09:33:46.648Z,9.13
2022-12-25T09:36:14.219Z,9.18
2022-12-25T09:38:41.771Z,9.16
2022-12-25T09:41:34.054Z,9.10
2022-12-25T09:44:11.359Z,9.25
2022-12-25T09:46:43.713Z,9.42
2022-12-25T09:49:38.301Z,9.57
2022-12-25T09:52:19.901Z,9.58
2022-12-25T09:55:00.071Z,9.65
2022-12-25T09:57:27.938Z,9.72
2022-12-25T09:59:56.392Z,9.75
2022-12-25T10:02:42.474Z,9.75
2022-12-25T10:05:27.547Z,9.88
2022-12-25T10:08:03.857Z,10.07
2022-12-25T10:10:46.762Z,10.20
2022-12-25T10:13:57.380Z,10.25
2022-12-25T10:16:48.548Z,10.08
2022-12-25T10:19:40.579Z,10.24
2022-12-25T10:22:47.943Z,10.43
2022-12-25T10:25:19.776Z,10.35
2022-12-25T10:27:54.708Z,10.41
2022-12-25T10:30:24.302Z,10.34
2022-12-25T10:32:54.804Z,10.44
2022-12-25T10:35:24.664Z,10.54
2022-12-25T10:38:02.569Z,10.74
2022-12-25T10:40:35.741Z,10.81
2022-12-25T10:43:11.555Z,10.78
2022-12-25T10:45:47.024Z,10.59
2022-12-25T10:48:19.365Z,10.68
2022-12-25T10:50:47.472Z,10.89
2022-12-25T10:53:29.057Z,11.04
2022-12-25T10:56:02.339Z,11.14
2022-12-25T10:58:31.062Z,11.21
2022-12-25T11:01:02.321Z,11.28
2022-12-25T11:03:35.510Z,11.29
2022-12-25T11:06:03.652Z,11.08
2022-12-25T11:08:34.731Z,11.21
2022-12-25T11:11:07.731Z,11.09
2022-12-25T11:13:40.994Z,11.31
2022-12-25T11:16:13.846Z,11.46
2022-12-25T11:18:53.213Z,11.60
2022-12-25T11:21:25.566Z,11.74
2022-12-25T11:23:59.662Z,11.85
2022-12-25T11:26:29.247Z,11.95
2022-12-25T11:28:58.197Z,12.02
2022-12-25T11:31:37.766Z,12.07
2022-12-25T11:34:11.579Z,12.09
2022-12-25T11:36:49.798Z,12.12
2022-12-25T11:39:21.870Z,12.26
2022-12-25T11:41:53.956Z,12.31
2022-12-25T11:44:40.824Z,12.37
2022-12-25T11:47:18.385Z,12.43
2022-12-25T11:50:01.511Z,12.53
2022-12-25T11:52:34.906Z,12.63
2022-12-25T11:55:37.303Z,12.69
2022-12-25T11:58:15.756Z,12.84
2022-12-25T12:00:46.496Z,12.98
2022-12-25T12:03:27.951Z,13.01
2022-12-25T12:06:04.908Z,13.19
2022-12-25T12:08:35.395Z,13.20
2022-12-25T12:11:23.642Z,13.32
2022-12-25T12:14:00.833Z,13.36
2022-12-25T12:16:28.928Z,13.34
2022-12-25T12:18:56.702Z,13.42
2022-12-25T12:21:30.151Z,13.40
2022-12-25T12:24:18.806Z,13.40
2022-12-25T12:26:48.016Z,13.32
2022-12-25T12:29:43.536Z,13.32
2022-12-25T12:32:29.371Z,13.35
2022-12-25T12:34:58.056Z,13.32
2022-12-25T12:37:32.988Z,13.30
2022-12-25T12:40:02.389Z,13.29
2022-12-25T12:42:32.991Z,13.25
2022-12-25T12:45:25.228Z,13.14
2022-12-25T12:47:53.767Z,13.00
2022-12-25T12:50:32.778Z,12.94
2022-12-25T12:53:05.625Z,12.88
2022-12-25T12:55:35.588Z,12.81
2022-12-25T12:58:05.803Z,12.67
2022-12-25T13:00:46.612Z,12.56
2022-12-25T13:03:17.058Z,12.44
2022-12-25T13:05:56.128Z,12.36
2022-12-25T13:08:48.313Z,12.32
2022-12-25T13:11:21.273Z,12.30
2022-12-25T13:13:52.169Z,12.28
2022-12-25T13:16:28.237Z,12.28
2022-12-25T13:18:56.752Z,12.30
2022-12-25T13:21:27.227Z,12.29
2022-12-25T13:24:10.635Z,12.25
2022-12-25T13:26:39.480Z,12.21
2022-12-25T13:29:11.482Z,12.17
2022-12-25T13:31:41.305Z,12.15
2022-12-25T13:34:31.676Z,12.12
2022-12-25T13:37:06.035Z,12.11
2022-12-25T13:39:34.910Z,12.12
2022-12-25T13:42:06.796Z,12.13
2022-12-25T13:44:50.905Z,12.13
2022-12-25T13:47:37.684Z,12.12
2022-12-25T13:50:20.610Z,12.10
2022-12-25T13:52:48.860Z,12.03
2022-12-25T13:55:19.863Z,11.97
2022-12-25T13:58:07.078Z,11.89
2022-12-25T14:00:45.235Z,11.80
2022-12-25T14:03:21.951Z,11.70
2022-12-25T14:06:16.153Z,11.63
2022-12-25T14:08:44.949Z,11.53
2022-12-25T14:11:16.346Z,11.45
2022-12-25T14:13:46.539Z,11.39
2022-12-25T14:16:20.700Z,11.32
2022-12-25T14:18:57.321Z,11.23
2022-12-25T14:21:40.923Z,11.14
2022-12-25T14:24:14.938Z,11.06
2022-12-25T14:26:43.163Z,10.95
2022-12-25T14:29:22.471Z,10.87
2022-12-25T14:31:52.674Z,10.77
2022-12-25T14:34:23.088Z,10.65
2022-12-25T14:36:52.609Z,10.48
2022-12-25T14:39:41.017Z,10.42
2022-12-25T14:42:19.125Z,10.29
2022-12-25T14:44:56.631Z,10.19
2022-12-25T14:47:24.064Z,10.07
2022-12-25T14:49:53.807Z,9.96
2022-12-25T14:52:44.121Z,9.86
2022-12-25T14:55:24.408Z,9.73
2022-12-25T14:57:56.087Z,9.63
2022-12-25T15:00:31.970Z,9.51
2022-12-25T15:03:01.026Z,9.41
2022-12-25T15:06:02.208Z,9.31
2022-12-25T15:08:31.059Z,9.22
2022-12-25T15:11:01.745Z,9.12
2022-12-25T15:13:31.390Z,9.02
2022-12-25T15:16:17.720Z,8.91
2022-12-25T15:18:46.911Z,8.81
2022-12-25T15:21:25.687Z,8.74
2022-12-25T15:23:58.497Z,8.58
2022-12-25T15:26:30.776Z,8.51
2022-12-25T15:28:58.971Z,8.45
2022-12-25T15:31:31.744Z,8.40
2022-12-25T15:34:02.316Z,8.34
2022-12-25T15:36:30.216Z,8.29
2022-12-25T15:38:57.906Z,8.20
2022-12-25T15:41:50.307Z,8.26
2022-12-25T15:44:18.557Z,8.19
2022-12-25T15:46:46.624Z,8.15
2022-12-25T15:49:15.265Z,8.10
2022-12-25T15:51:43.924Z,8.04
2022-12-25T15:54:11.654Z,8.00
2022-12-25T15:56:43.345Z,7.96
2022-12-25T15:59:13.258Z,7.93
2022-12-25T16:02:13.260Z,7.87
2022-12-25T16:04:42.484Z,7.81
2022-12-25T16:07:23.566Z,7.78
2022-12-25T16:09:52.008Z,7.79
2022-12-25T16:12:20.024Z,7.76
2022-12-25T16:14:47.475Z,7.75
2022-12-25T16:17:16.162Z,7.71
2022-12-25T16:19:44.868Z,7.72
2022-12-25T16:22:14.303Z,7.75
2022-12-25T16:24:42.112Z,7.79
2022-12-25T16:27:09.634Z,7.81
2022-12-25T16:29:37.172Z,7.82
2022-12-25T16:32:04.999Z,7.85
2022-12-25T16:34:32.484Z,7.86
2022-12-25T16:36:59.973Z,7.88
2022-12-25T16:39:27.659Z,7.93
2022-12-25T16:41:55.174Z,7.97
2022-12-25T16:44:22.661Z,8.01
2022-12-25T16:46:50.491Z,8.06
2022-12-25T16:49:18.029Z,8.04
2022-12-25T16:51:46.049Z,7.99
2022-12-25T16:54:13.761Z,8.04
2022-12-25T16:56:41.567Z,7.98
2022-12-25T16:59:09.238Z,7.99
2022-12-25T17:01:43.181Z,8.06
2022-12-25T17:04:11.074Z,8.01
2022-12-25T17:06:38.927Z,8.04
2022-12-25T17:09:07.554Z,8.00
2022-12-25T17:11:35.046Z,7.97
2022-12-25T17:14:04.321Z,8.00
2022-12-25T17:16:34.742Z,8.03
2022-12-25T17:19:08.137Z,8.09
2022-12-25T17:21:38.177Z,8.11
2022-12-25T17:24:06.710Z,8.13
2022-12-25T17:26:34.164Z,8.12
2022-12-25T17:29:01.767Z,8.12
2022-12-25T17:31:30.464Z,8.10
2022-12-25T17:34:00.675Z,8.10
2022-12-25T17:36:28.758Z,8.06
2022-12-25T17:38:58.431Z,8.12
2022-12-25T17:41:25.950Z,8.10
2022-12-25T17:43:53.622Z,8.10
2022-12-25T17:46:26.448Z,8.07
2022-12-25T17:48:56.342Z,8.02
2022-12-25T17:51:26.961Z,7.97
2022-12-25T17:53:57.036Z,7.94
2022-12-25T17:56:25.321Z,7.88
2022-12-25T17:58:55.214Z,7.87
2022-12-25T18:01:24.863Z,7.81
2022-12-25T18:03:53.125Z,7.89
2022-12-25T18:06:22.780Z,7.83
2022-12-25T18:08:50.341Z,7.86
2022-12-25T18:11:24.039Z,7.73
2022-12-25T18:13:52.293Z,7.83
2022-12-25T18:16:23.303Z,7.89
2022-12-25T18:18:52.561Z,7.91
2022-12-25T18:21:22.274Z,7.90
2022-12-25T18:23:50.426Z,7.93
2022-12-25T18:26:20.238Z,7.99
2022-12-25T18:28:50.019Z,8.01
2022-12-25T18:31:22.828Z,8.01
2022-12-25T18:33:51.766Z,8.02
2022-12-25T18:36:22.992Z,8.01
2022-12-25T18:38:52.607Z,8.01
2022-12-25T18:41:21.907Z,8.02
2022-12-25T18:43:53.159Z,8.00
2022-12-25T18:46:25.574Z,7.99
2022-12-25T18:48:55.769Z,8.01
2022-12-25T18:51:24.783Z,8.00
2022-12-25T18:53:52.327Z,8.00
2022-12-25T18:56:20.420Z,7.99
2022-12-25T18:58:48.223Z,7.99
2022-12-25T19:01:23.654Z,7.99
2022-12-25T19:03:57.164Z,7.97
2022-12-25T19:06:32.752Z,7.95
2022-12-25T19:09:00.795Z,7.95
2022-12-25T19:11:28.218Z,7.96
2022-12-25T19:13:56.163Z,7.94
2022-12-25T19:16:24.071Z,7.93
2022-12-25T19:18:51.547Z,7.91
2022-12-25T19:21:19.217Z,7.94
2022-12-25T19:23:47.131Z,7.95
2022-12-25T19:26:14.573Z,7.96
2022-12-25T19:28:42.207Z,7.95
2022-12-25T19:31:10.812Z,7.97
2022-12-25T19:33:41.608Z,7.99
2022-12-25T19:36:12.585Z,7.99
2022-12-25T19:38:40.615Z,7.99
2022-12-25T19:41:16.870Z,7.99
2022-12-25T19:43:47.672Z,8.01
2022-12-25T19:46:18.802Z,8.01
2022-12-25T19:48:46.870Z,8.00
2022-12-25T19:51:27.833Z,8.01
2022-12-25T19:53:56.576Z,8.00
2022-12-25T19:56:25.034Z,7.98
2022-12-25T19:58:53.270Z,7.98
2022-12-25T20:01:23.168Z,7.98
2022-12-25T20:03:51.064Z,7.95
2022-12-25T20:06:24.950Z,7.96
2022-12-25T20:08:55.355Z,7.95
2022-12-25T20:11:25.448Z,7.93
2022-12-25T20:13:53.938Z,7.93
2022-12-25T20:16:23.822Z,7.89
2022-12-25T20:18:52.447Z,7.89
2022-12-25T20:21:21.630Z,7.87
2022-12-25T20:23:51.650Z,7.87
2022-12-25T20:26:22.193Z,7.87
2022-12-25T20:28:50.163Z,7.87
2022-12-25T20:31:29.562Z,7.83
2022-12-25T20:33:59.511Z,7.85
2022-12-25T20:36:31.186Z,7.86
2022-12-25T20:39:04.675Z,7.86
2022-12-25T20:41:32.274Z,7.86
2022-12-25T20:44:01.858Z,7.86
2022-12-25T20:46:30.229Z,7.87
2022-12-25T20:48:57.832Z,7.80
2022-12-25T20:51:26.207Z,7.85
2022-12-25T20:53:54.927Z,7.85
2022-12-25T20:56:24.799Z,7.85
2022-12-25T20:58:57.443Z,7.85
2022-12-25T21:01:27.032Z,7.85
2022-12-25T21:03:55.136Z,7.83
2022-12-25T21:06:23.440Z,7.82
2022-12-25T21:08:51.358Z,7.81
2022-12-25T21:11:21.251Z,7.79
2022-12-25T21:13:49.632Z,7.81
2022-12-25T21:16:20.271Z,7.79
2022-12-25T21:18:49.361Z,7.79
2022-12-25T21:21:17.175Z,7.79
2022-12-25T21:23:45.601Z,7.78
2022-12-25T21:26:19.698Z,7.76
2022-12-25T21:28:49.287Z,7.78
2022-12-25T21:31:17.330Z,7.73
2022-12-25T21:33:55.102Z,7.75
2022-12-25T21:36:29.575Z,7.74
2022-12-25T21:39:06.315Z,7.72
2022-12-25T21:41:36.816Z,7.69
2022-12-25T21:44:05.441Z,7.72
2022-12-25T21:46:32.909Z,7.69
2022-12-25T21:49:01.119Z,7.68
2022-12-25T21:51:49.941Z,7.67
2022-12-25T21:54:21.838Z,7.67
2022-12-25T21:56:50.050Z,7.67
2022-12-25T21:59:20.548Z,7.64
2022-12-25T22:01:49.441Z,7.67
2022-12-25T22:04:18.599Z,7.65
2022-12-25T22:07:05.023Z,7.66
2022-12-25T22:09:33.234Z,7.68
2022-12-25T22:12:19.455Z,7.66
2022-12-25T22:14:54.071Z,7.69
2022-12-25T22:17:44.629Z,7.64
2022-12-25T22:20:21.730Z,7.70
2022-12-25T22:22:51.039Z,7.71
2022-12-25T22:25:20.251Z,7.69
2022-12-25T22:27:48.827Z,7.69
2022-12-25T22:30:22.268Z,7.70
2022-12-25T22:32:51.905Z,7.68
2022-12-25T22:35:20.719Z,7.64
2022-12-25T22:37:49.607Z,7.66
2022-12-25T22:40:19.480Z,7.66
2022-12-25T22:42:47.270Z,7.67
2022-12-25T22:45:16.304Z,7.64
2022-12-25T22:47:44.218Z,7.64
2022-12-25T22:50:14.621Z,7.62
2022-12-25T22:52:42.948Z,7.62
2022-12-25T22:55:10.978Z,7.63
2022-12-25T22:57:38.441Z,7.63
2022-12-25T23:00:08.887Z,7.61
2022-12-25T23:02:36.947Z,7.60
2022-12-25T23:05:04.883Z,7.61
2022-12-25T23:07:32.319Z,7.60
2022-12-25T23:10:00.240Z,7.59
2022-12-25T23:12:46.336Z,7.60
2022-12-25T23:15:14.095Z,7.60
2022-12-25T23:18:00.057Z,7.59
2022-12-25T23:20:46.328Z,7.59
2022-12-25T23:23:35.458Z,7.52
2022-12-25T23:26:09.820Z,7.53
2022-12-25T23:28:58.049Z,7.55
2022-12-25T23:31:32.446Z,7.52
2022-12-25T23:34:01.096Z,7.52
2022-12-25T23:36:28.941Z,7.55
2022-12-25T23:38:56.598Z,7.56
2022-12-25T23:41:24.020Z,7.56
2022-12-25T23:43:51.750Z,7.57
2022-12-25T23:46:19.796Z,7.58
2022-12-25T23:48:47.717Z,7.59
2022-12-25T23:51:15.438Z,7.60
2022-12-25T23:53:42.920Z,7.63
2022-12-25T23:56:10.849Z,7.62
2022-12-25T23:58:38.808Z,7.62
